TimeEST,TemperatureF,Dew PointF,Humidity,Sea Level PressureIn,VisibilityMPH,Wind Direction,Wind SpeedMPH,Gust SpeedMPH,PrecipitationIn,Events,Conditions,WindDirDegrees,DateUTC
12:53 AM,10.0,-2.9,56,30.34,10.0,Calm,Calm,-,N/A,,Clear,0,2009-02-06 05:53:00
1:53 AM,9.0,-2.9,59,30.35,10.0,West,3.5,-,N/A,,Clear,270,2009-02-06 06:53:00
2:53 AM,8.1,-2.9,61,30.34,10.0,West,4.6,-,N/A,,Clear,280,2009-02-06 07:53:00
3:53 AM,7.0,-2.9,64,30.34,10.0,Calm,Calm,-,N/A,,Clear,0,2009-02-06 08:53:00
4:53 AM,3.0,-2.9,76,30.35,10.0,Calm,Calm,-,N/A,,Clear,0,2009-02-06 09:53:00
5:53 AM,3.9,-2.0,76,30.36,10.0,Calm,Calm,-,N/A,,Clear,0,2009-02-06 10:53:00
6:53 AM,1.9,-2.9,80,30.37,10.0,Calm,Calm,-,N/A,,Partly Cloudy,0,2009-02-06 11:53:00
7:53 AM,10.9,1.0,64,30.38,10.0,SW,4.6,-,N/A,,Partly Cloudy,230,2009-02-06 12:53:00
8:53 AM,12.9,3.0,65,30.40,10.0,West,4.6,-,N/A,,Overcast,270,2009-02-06 13:53:00
9:53 AM,18.0,3.0,52,30.40,10.0,West,6.9,-,N/A,,Overcast,270,2009-02-06 14:53:00
10:53 AM,19.0,3.0,50,30.39,10.0,WNW,9.2,-,N/A,,Overcast,290,2009-02-06 15:53:00
11:53 AM,21.0,3.9,48,30.37,10.0,WSW,9.2,-,N/A,,Overcast,250,2009-02-06 16:53:00
12:53 PM,21.9,5.0,48,30.35,10.0,Variable,5.8,-,N/A,,Clear,0,2009-02-06 17:53:00
1:53 PM,24.1,6.1,46,30.34,10.0,West,9.2,-,N/A,,Clear,260,2009-02-06 18:53:00
2:53 PM,26.1,6.1,43,30.34,10.0,West,10.4,-,N/A,,Clear,270,2009-02-06 19:53:00
3:53 PM,26.1,8.1,47,30.33,10.0,SW,8.1,18.4,N/A,,Clear,220,2009-02-06 20:53:00
4:53 PM,25.0,7.0,46,30.32,10.0,SW,8.1,-,N/A,,Clear,230,2009-02-06 21:53:00
5:53 PM,24.1,8.1,51,30.35,10.0,SW,3.5,-,N/A,,Clear,230,2009-02-06 22:53:00
6:53 PM,19.9,8.1,60,30.37,10.0,Calm,Calm,-,N/A,,Clear,0,2009-02-06 23:53:00
7:53 PM,16.0,8.1,71,30.38,10.0,Calm,Calm,-,N/A,,Clear,0,2009-02-07 00:53:00
8:53 PM,14.0,7.0,74,30.38,10.0,Calm,Calm,-,N/A,,Clear,0,2009-02-07 01:53:00
9:53 PM,14.0,9.0,80,30.40,10.0,West,3.5,-,N/A,,Clear,260,2009-02-07 02:53:00
10:53 PM,12.9,8.1,81,30.41,10.0,Calm,Calm,-,N/A,,Clear,0,2009-02-07 03:53:00
11:53 PM,12.0,8.1,84,30.40,10.0,Calm,Calm,-,N/A,,Clear,0,2009-02-07 04:53:00